Richelieu/Messier Airport

CRM3 · Quebec, Canada

METAR anciennes CRM3 · Richelieu/Messier Airport

Tu vois ci-dessous les METAR des derniers jours. Sélectionne une année pour parcourir les METAR plus anciens, à partir de l'année 2007.

27 février 2024

Temps Code Temps Temp. Vue Base cloud Vent METAR/SPECI
15:00
V
15 °C 9 mi - 170° 170° 19 - 33 kt METAR CYHU 272000Z AUTO 17019G33KT 9SM CLR 15/03 A2971 RMK SLP065 DENSITY ALT 400FT
14:00
V
15 °C 9 mi - 160° 160° 20 - 31 kt METAR CYHU 271900Z AUTO 16020G31KT 9SM CLR 15/02 A2973 RMK SLP071 DENSITY ALT 300FT
13:00
V
14 °C 9 mi - 170° 170° 18 - 28 kt METAR CYHU 271800Z AUTO 17018G28KT 9SM CLR 14/03 A2976 RMK SLP080
12:00
V
12 °C 9 mi - 170° 170° 18 - 25 kt METAR CYHU 271700Z AUTO 17018G25KT 9SM CLR 12/02 A2980 RMK SLP093
11:00
V
11 °C 9 mi - 170° 170° 17 - 26 kt METAR CYHU 271600Z AUTO 17017G26KT 9SM CLR 11/02 A2982 RMK SLP102
10:00
V
9 °C 9 mi - 170° 170° 13 - 24 kt METAR CYHU 271500Z AUTO 17013G24KT 9SM CLR 09/00 A2983 RMK SLP106
09:00
V
7 °C 9 mi - 170° 170° 14 - 27 kt METAR CYHU 271400Z AUTO 17014G27KT 9SM CLR 07/M01 A2985 RMK SLP110
08:00
V
5 °C 9 mi - 190° 190° 11 - 17 kt METAR CYHU 271300Z AUTO 19011G17KT 9SM CLR 05/M02 A2987 RMK SLP117
07:00
V
1 °C 9 mi 16.000 ft 160° 160° 9 - 16 kt METAR CYHU 271200Z AUTO 16009G16KT 9SM SCT130 BKN160 BKN230 01/M04 A2986 RMK SLP114
06:00
V
-1 °C 9 mi 16.000 ft 150° 150° 8 kt METAR CYHU 271100Z AUTO 15008KT 9SM FEW140 BKN160 M01/M06 A2987 RMK SLP118
05:00
V
-1 °C 9 mi - 110° 110° 6 kt METAR CYHU 271000Z AUTO 11006KT 9SM CLR M01/M06 A2990 RMK SLP128
04:00
V
-2 °C 9 mi - 090° 090° 4 kt METAR CYHU 270900Z AUTO 09004KT 9SM CLR M02/M06 A2992 RMK SLP136
03:00
V
-3 °C 9 mi - 050° 050° 5 kt METAR CYHU 270800Z AUTO 05005KT 9SM CLR M03/M05 A2996 RMK SLP147
02:00
V
-2 °C 9 mi - 110° 110° 4 kt METAR CYHU 270700Z AUTO 11004KT 9SM CLR M02/M05 A2997 RMK SLP151
01:00
V
-2 °C 9 mi - 070° 070° 4 kt METAR CYHU 270600Z AUTO 07004KT 9SM CLR M02/M04 A2999 RMK SLP157
00:00
V
-2 °C 9 mi - 100° 100° 3 kt METAR CYHU 270500Z AUTO 10003KT 9SM SCT130 M02/M05 A2999 RMK SLP159

26 février 2024

Temps Code Temps Temp. Vue Base cloud Vent METAR/SPECI
23:00
V
-2 °C 9 mi - 190° 190° 4 kt METAR CYHU 270400Z AUTO 19004KT 9SM FEW150 M02/M05 A3000 RMK SLP161
22:00
V
-2 °C 9 mi 18.000 ft 050° 050° 5 kt METAR CYHU 270300Z AUTO 05005KT 9SM BKN180 BKN200 M02/M05 A3001 RMK SLP165
21:00
V
-1 °C 9 mi - 360° 360° 0 kt METAR CYHU 270200Z AUTO 00000KT 9SM FEW220 M01/M06 A3002 RMK SLP171
20:00
V
0 °C 9 mi - 200° 200° 4 kt METAR CYHU 270100Z AUTO 20004KT 9SM CLR M00/M06 A3002 RMK SLP169
19:00
V
0 °C 9 mi - 220° 220° 7 kt METAR CYHU 270000Z AUTO 22007KT 9SM CLR 00/M06 A3002 RMK SLP169
18:00
V
2 °C 9 mi - 240° 240° 7 kt METAR CYHU 262300Z AUTO 24007KT 9SM CLR 02/M05 A3000 RMK SLP161
17:00
V
4 °C 9 mi - 260° 260° 8 kt METAR CYHU 262200Z AUTO 26008KT 9SM CLR 04/M06 A2997 RMK SLP152
16:00
V
5 °C 9 mi - 260° 260° 13 kt METAR CYHU 262100Z AUTO 26013KT 9SM CLR 05/M06 A2994 RMK SLP142
15:00
V
6 °C 9 mi - 270° 270° 13 - 21 kt METAR CYHU 262000Z AUTO 27013G21KT 9SM CLR 06/M05 A2992 RMK SLP134
14:00
V
5 °C 9 mi - 270° 270° 14 - 24 kt METAR CYHU 261900Z AUTO 27014G24KT 230V300 9SM FEW045 05/M03 A2990 RMK SLP128
13:00
V
5 °C 9 mi - 240° 240° 14 - 19 kt METAR CYHU 261800Z AUTO 24014G19KT 9SM FEW029 05/M00 A2988 RMK SLP122
12:00
M
4 °C 9 mi 2.700 ft 230° 230° 11 - 18 kt METAR CYHU 261700Z AUTO 23011G18KT 9SM SCT014 BKN027 BKN032 04/01 A2988 RMK SLP121
11:21
M
3 °C 9 mi 1.600 ft 240° 240° 10 - 16 kt METAR CYHU 261621Z AUTO 24010G16KT 9SM FEW010 BKN016 BKN110 03/01 A2988 RMK SLP120
11:00
V
2 °C 9 mi 11.000 ft 230° 230° 14 - 20 kt METAR CYHU 261600Z AUTO 23014G20KT 9SM SCT008 BKN110 02/01 A2987 RMK SLP117
10:43
I
2 °C 9 mi 800 ft 230° 230° 11 - 17 kt METAR CYHU 261543Z AUTO 23011G17KT 9SM BKN008 BKN086 BKN110 02/01 A2987 RMK SLP117
10:39
M
2 °C 9 mi 1.000 ft 240° 240° 11 - 17 kt METAR CYHU 261539Z AUTO 24011G17KT 9SM FEW006 BKN010 BKN086 BKN110 02/01 A2987 RMK SLP117
10:11
V
1 °C 9 mi 9.100 ft 230° 230° 12 kt METAR CYHU 261511Z AUTO 23012KT 9SM SCT004 SCT046 BKN091 OVC110 01/00 A2986 RMK SLP116
10:00
I
1 °C 9 mi 600 ft 230° 230° 12 kt METAR CYHU 261500Z AUTO 23012KT 9SM BKN006 BKN042 OVC100 01/00 A2986 RMK ICE PAST HR PCPN 0.5MM PAST HR SLP116
09:58
I
1 °C 9 mi 600 ft 220° 220° 10 kt METAR CYHU 261458Z AUTO 22010KT 9SM BKN006 BKN038 BKN046 OVC100 01/00 A2986 RMK ICE PAST HR PCPN 0.5MM PAST HR SLP115
09:42
I
1 °C 9 mi 600 ft 220° 220° 9 kt METAR CYHU 261442Z AUTO 22009KT 9SM BKN006 OVC036 01/M00 A2986 RMK ICE PAST HR PCPN 0.5MM PAST HR SLP116
09:33
V
0 °C 9 mi 3.600 ft 210° 210° 8 kt METAR CYHU 261433Z AUTO 21008KT 9SM -RA FEW006 SCT019 OVC036 00/M00 A2986 RMK ICE PAST HR PCPN 0.5MM PAST HR SLP115
09:28
V
0 °C 7 mi 3.600 ft 210° 210° 7 kt METAR CYHU 261428Z AUTO 21007KT 7SM -SNRA FEW006 SCT013 OVC036 00/M01 A2986 RMK ICE PAST HR PCPN 0.5MM PAST HR SLP115
09:18
I
0 °C 2 mi 1.300 ft 200° 200° 8 kt METAR CYHU 261418Z AUTO 20008KT 2SM -SN FEW008 BKN013 OVC036 00/M01 A2986 RMK ICE INTMT PCPN 0.5MM PAST HR SLP114
09:11
I
0 °C 1¼ mi 1.100 ft 200° 200° 7 kt METAR CYHU 261411Z AUTO 20007KT 1 1/4SM R24R/3000VP6000FT/ -SN FEW008 OVC011 00/M01 A2986 RMK ICE INTMT PCPN 0.5MM PAST HR SLP113
09:00
I
0 °C 1¼ mi 1.100 ft 210° 210° 7 kt METAR CYHU 261400Z AUTO 21007KT 1 1/4SM R24R/3500VP6000FT/ -SN BKN011 OVC017 00/M01 A2986 RMK VIS VRB 3/4-2 ICE SLP114
08:56
I
0 °C 1¾ mi 1.300 ft 210° 210° 8 kt METAR CYHU 261356Z AUTO 21008KT 1 3/4SM -SN BKN013 OVC019 00/M01 A2986 RMK VIS VRB 1 1/4-2 ICE SLP114
08:42
M
1 °C 3 mi 2.600 ft 230° 230° 7 kt METAR CYHU 261342Z AUTO 23007KT 3SM -SN SCT017 OVC026 01/M02 A2986 RMK SLP115
08:37
V
1 °C 5 mi 3.100 ft 220° 220° 7 kt METAR CYHU 261337Z AUTO 22007KT 5SM -SN -UP SCT019 BKN031 BKN055 OVC069 01/M03 A2986 RMK SLP116
08:31
V
1 °C 9 mi 3.700 ft 220° 220° 7 kt METAR CYHU 261331Z AUTO 22007KT 9SM -UP FEW021 BKN037 OVC060 01/M03 A2986 RMK SLP114
08:00
V
1 °C 9 mi 4.400 ft 200° 200° 5 kt METAR CYHU 261300Z AUTO 20005KT 9SM OVC044 01/M03 A2984 RMK SLP107
07:11
V
1 °C 9 mi 3.400 ft 190° 190° 5 kt METAR CYHU 261211Z AUTO 19005KT 9SM SCT028 OVC034 01/M03 A2982 RMK PRESRR SLP102
07:06
M
0 °C 9 mi 2.800 ft 170° 170° 5 kt METAR CYHU 261206Z AUTO 17005KT 9SM -RA FEW019 BKN028 OVC034 00/M03 A2981 RMK SLP099
06:55
M
0 °C 9 mi 2.600 ft 170° 170° 6 kt METAR CYHU 261155Z AUTO 17006KT 9SM -SN -UP FEW019 BKN026 OVC038 00/M03 A2981 RMK PRESFR SLP096
06:33
V
1 °C 6 mi 3.900 ft 210° 210° 5 kt METAR CYHU 261133Z AUTO 21005KT 6SM -SN SCT030 BKN039 BKN046 OVC055 01/M03 A2982 RMK SLP100
06:28
V
1 °C 5 mi 4.300 ft 220° 220° 5 kt METAR CYHU 261128Z AUTO 22005KT 5SM -SN FEW030 BKN043 OVC055 01/M03 A2981 RMK SLP099
06:23
V
1 °C 7 mi 4.300 ft 210° 210° 6 kt METAR CYHU 261123Z AUTO 21006KT 7SM -SN BKN043 OVC055 01/M04 A2981 RMK SLP098
06:17
V
1 °C 9 mi 4.200 ft 200° 200° 6 kt METAR CYHU 261117Z AUTO 20006KT 9SM -SNRA BKN042 OVC055 01/M04 A2981 RMK SLP098
06:10
V
1 °C 9 mi 4.200 ft 210° 210° 6 kt METAR CYHU 261110Z AUTO 21006KT 9SM -RA OVC042 01/M04 A2981 RMK SLP098
06:00
V
1 °C 9 mi 4.600 ft 210° 210° 7 kt METAR CYHU 261100Z AUTO 21007KT 9SM OVC046 01/M04 A2981 RMK SLP099
05:37
V
1 °C 9 mi 4.600 ft 220° 220° 9 kt METAR CYHU 261037Z AUTO 22009KT 9SM OVC046 01/M04 A2981 RMK SLP097
05:21
V
1 °C 9 mi 4.800 ft 210° 210° 7 kt METAR CYHU 261021Z AUTO 21007KT 9SM -RA OVC048 01/M04 A2981 RMK SLP096
05:00
V
1 °C 9 mi 5.000 ft 180° 180° 12 kt METAR CYHU 261000Z AUTO 18012KT 9SM OVC050 01/M04 A2980 RMK SLP093
04:50
V
1 °C 9 mi 5.000 ft 180° 180° 11 kt METAR CYHU 260950Z AUTO 18011KT 9SM OVC050 01/M04 A2979 RMK SLP092
04:37
V
1 °C 9 mi 5.000 ft 180° 180° 11 - 16 kt METAR CYHU 260937Z AUTO 18011G16KT 9SM -RA OVC050 01/M04 A2979 RMK SLP092
04:00
V
1 °C 9 mi 5.000 ft 180° 180° 12 - 18 kt METAR CYHU 260900Z AUTO 18012G18KT 9SM OVC050 01/M05 A2979 RMK SLP091
03:00
V
1 °C 9 mi 5.500 ft 190° 190° 7 kt METAR CYHU 260800Z AUTO 19007KT 9SM OVC055 01/M05 A2979 RMK SLP091
02:00
V
0 °C 9 mi 8.100 ft 180° 180° 10 - 18 kt METAR CYHU 260700Z AUTO 18010G18KT 9SM BKN081 OVC093 00/M05 A2981 RMK SLP097
01:00
V
0 °C 9 mi 8.600 ft 170° 170° 9 - 16 kt METAR CYHU 260600Z AUTO 17009G16KT 9SM OVC086 00/M04 A2981 RMK SLP098
00:17
V
0 °C 9 mi 7.900 ft 140° 140° 9 kt METAR CYHU 260517Z AUTO 14009KT 9SM FEW055 OVC079 M00/M03 A2981 RMK SLP098
00:00
I
0 °C 3 mi 4.400 ft 150° 150° 9 kt METAR CYHU 260500Z AUTO 15009KT 3SM -SN BKN044 OVC071 M00/M02 A2982 RMK ICE PAST HR SLP102

25 février 2024

Temps Code Temps Temp. Vue Base cloud Vent METAR/SPECI
23:45
V
0 °C 5 mi 3.800 ft 170° 170° 8 kt METAR CYHU 260445Z AUTO 17008KT 5SM -SN OVC038 00/M02 A2984 RMK ICE PAST HR SLP107
23:36
V
0 °C 9 mi 4.200 ft 170° 170° 8 kt METAR CYHU 260436Z AUTO 17008KT 9SM -SN FEW020 OVC042 M00/M02 A2984 RMK ICE PAST HR SLP109
23:26
V
0 °C 9 mi 3.800 ft 180° 180° 8 kt METAR CYHU 260426Z AUTO 18008KT 9SM -SN -UP FEW020 BKN038 OVC071 M00/M03 A2985 RMK ICE PAST HR SLP111
23:18
M
0 °C 4 mi 2.900 ft 190° 190° 10 - 18 kt METAR CYHU 260418Z AUTO 19010G18KT 4SM -SN FEW020 BKN029 OVC066 M00/M03 A2985 RMK ICE INTMT SLP112
23:12
I
0 °C 2¼ mi 2.700 ft 210° 210° 11 - 24 kt METAR CYHU 260412Z AUTO 21011G24KT 2 1/4SM -SN FEW020 OVC027 M00/M03 A2986 RMK VIS VRB 1 3/4-3 ICE MISG SLP114
23:05
I
0 °C 1¾ mi 2.000 ft 240° 240° 17 - 28 kt METAR CYHU 260405Z AUTO 24017G28KT 1 3/4SM -SN BKN020 OVC076 00/M02 A2986 RMK ICE SLP115
23:00
M
1 °C 3 mi 2.200 ft 240° 240° 20 - 28 kt METAR CYHU 260400Z AUTO 24020G28KT 3SM -SN BKN022 OVC076 01/M03 A2986 RMK SLP116
23:01
I
1 °C 2½ mi 2.000 ft 240° 240° 17 - 28 kt METAR CYHU 260401Z AUTO 24017G28KT 2 1/2SM -SN BKN020 OVC076 01/M03 A2986 RMK SLP116
22:59
I
1 °C 3 mi 2.200 ft 240° 240° 20 - 28 kt METAR CYHU 260359Z AUTO 24020G28KT 3SM -SN BKN022 OVC076 01/M03 A2986 RMK WSHFT AT 0343Z SLP116
22:00
V
1 °C 9 mi 8.600 ft 190° 190° 14 kt METAR CYHU 260300Z AUTO 19014KT 9SM SCT060 OVC086 01/M07 A2984 RMK SLP107
21:00
V
0 °C 9 mi 13.000 ft 170° 170° 9 - 17 kt METAR CYHU 260200Z AUTO 17009G17KT 9SM BKN130 00/M07 A2983 RMK SLP107
20:00
V
0 °C 9 mi 18.000 ft 170° 170° 9 kt METAR CYHU 260100Z AUTO 17009KT 9SM SCT066 BKN180 OVC210 00/M07 A2984 RMK SLP110
19:00
V
0 °C 9 mi 25.000 ft 180° 180° 10 - 18 kt METAR CYHU 260000Z AUTO 18010G18KT 9SM SCT230 BKN250 00/M07 A2985 RMK SLP113
18:00
V
0 °C 9 mi 15.000 ft 170° 170° 9 kt METAR CYHU 252300Z AUTO 17009KT 9SM FEW110 BKN150 M00/M08 A2986 RMK SLP115
17:00
V
0 °C 9 mi 15.000 ft 170° 170° 11 - 16 kt METAR CYHU 252200Z AUTO 17011G16KT 9SM OVC150 00/M08 A2986 RMK SLP117
16:00
V
0 °C 9 mi - 170° 170° 12 - 20 kt METAR CYHU 252100Z AUTO 17012G20KT 9SM FEW140 00/M09 A2989 RMK SLP124
15:00
V
0 °C 9 mi - 160° 160° 15 - 20 kt METAR CYHU 252000Z AUTO 16015G20KT 9SM CLR 00/M10 A2990 RMK SLP128
14:00
V
-1 °C 9 mi - 190° 190° 15 - 20 kt METAR CYHU 251900Z AUTO 19015G20KT 9SM CLR M01/M09 A2993 RMK SLP138
13:00
V
-1 °C 9 mi - 170° 170° 11 - 18 kt METAR CYHU 251800Z AUTO 17011G18KT 9SM CLR M01/M08 A2995 RMK SLP146
12:00
V
-2 °C 9 mi - 160° 160° 14 - 19 kt METAR CYHU 251700Z AUTO 16014G19KT 9SM SCT220 M02/M09 A2999 RMK SLP158
11:00
V
-3 °C 9 mi - 180° 180° 11 - 16 kt METAR CYHU 251600Z AUTO 18011G16KT 9SM CLR M03/M12 A3001 RMK SLP166
10:00
V
-4 °C 9 mi - 180° 180° 9 kt METAR CYHU 251500Z AUTO 18009KT 9SM CLR M04/M13 A3003 RMK SLP174
09:00
V
-7 °C 9 mi - 190° 190° 10 kt METAR CYHU 251400Z AUTO 19010KT 9SM CLR M07/M14 A3005 RMK SLP178
08:00
V
-10 °C 9 mi - 180° 180° 8 kt METAR CYHU 251300Z AUTO 18008KT 9SM CLR M10/M15 A3006 RMK SLP183
07:00
V
-12 °C 9 mi - 170° 170° 6 kt METAR CYHU 251200Z AUTO 17006KT 9SM CLR M12/M16 A3005 RMK SLP181
06:00
V
-13 °C 9 mi - 170° 170° 5 kt METAR CYHU 251100Z AUTO 17005KT 9SM CLR M13/M17 A3005 RMK SLP181
05:00
V
-12 °C 9 mi - 170° 170° 6 kt METAR CYHU 251000Z AUTO 17006KT 9SM CLR M12/M17 A3005 RMK SLP181
04:00
V
-12 °C 9 mi - 160° 160° 5 kt METAR CYHU 250900Z AUTO 16005KT 9SM CLR M12/M17 A3005 RMK SLP181
03:00
V
-12 °C 9 mi - 190° 190° 6 kt METAR CYHU 250800Z AUTO 19006KT 9SM CLR M12/M17 A3005 RMK SLP181
02:00
V
-12 °C 9 mi - 190° 190° 5 kt METAR CYHU 250700Z AUTO 19005KT 9SM CLR M12/M18 A3005 RMK SLP179
01:00
V
-12 °C 9 mi - 210° 210° 3 kt METAR CYHU 250600Z AUTO 21003KT 9SM CLR M12/M18 A3004 RMK SLP177